createdAt,value
2022-09-06T00:01:12.968Z,24.70
2022-09-06T00:03:41.171Z,24.71
2022-09-06T00:06:11.035Z,24.70
2022-09-06T00:08:38.791Z,24.70
2022-09-06T00:11:08.017Z,24.65
2022-09-06T00:13:36.500Z,24.66
2022-09-06T00:16:09.941Z,24.64
2022-09-06T00:18:37.687Z,24.62
2022-09-06T00:21:06.510Z,24.60
2022-09-06T00:23:34.181Z,24.60
2022-09-06T00:26:05.902Z,24.58
2022-09-06T00:28:34.951Z,24.56
2022-09-06T00:31:09.717Z,24.56
2022-09-06T00:33:37.641Z,24.53
2022-09-06T00:36:05.456Z,24.50
2022-09-06T00:38:33.455Z,24.48
2022-09-06T00:41:01.153Z,24.45
2022-09-06T00:43:29.467Z,24.42
2022-09-06T00:45:58.822Z,24.38
2022-09-06T00:48:26.949Z,24.37
2022-09-06T00:51:01.674Z,24.35
2022-09-06T00:53:29.875Z,24.33
2022-09-06T00:55:57.749Z,24.32
2022-09-06T00:58:26.593Z,24.28
2022-09-06T01:00:54.704Z,24.26
2022-09-06T01:03:25.435Z,24.24
2022-09-06T01:06:02.030Z,24.22
2022-09-06T01:08:44.545Z,24.20
2022-09-06T01:11:30.110Z,24.18
2022-09-06T01:14:04.521Z,24.12
2022-09-06T01:16:41.218Z,24.13
2022-09-06T01:19:47.359Z,24.12
2022-09-06T01:22:27.515Z,24.10
2022-09-06T01:25:05.179Z,24.07
2022-09-06T01:28:11.540Z,24.07
2022-09-06T01:30:48.251Z,24.04
2022-09-06T01:33:24.480Z,24.02
2022-09-06T01:35:56.964Z,24.01
2022-09-06T01:38:24.837Z,24.00
2022-09-06T01:40:52.542Z,23.98
2022-09-06T01:43:24.998Z,23.98
2022-09-06T01:46:01.954Z,23.96
2022-09-06T01:48:46.019Z,23.92
2022-09-06T01:51:24.998Z,23.91
2022-09-06T01:54:06.434Z,23.88
2022-09-06T01:56:42.724Z,23.89
2022-09-06T01:59:23.391Z,23.88
2022-09-06T02:02:04.783Z,23.86
2022-09-06T02:04:38.715Z,23.85
2022-09-06T02:07:12.239Z,23.84
2022-09-06T02:09:43.623Z,23.84
2022-09-06T02:12:15.111Z,23.82
2022-09-06T02:14:48.156Z,23.81
2022-09-06T02:17:21.363Z,23.79
2022-09-06T02:19:53.791Z,23.77
2022-09-06T02:22:25.541Z,23.77
2022-09-06T02:24:56.111Z,23.75
2022-09-06T02:27:23.903Z,23.72
2022-09-06T02:29:51.715Z,23.69
2022-09-06T02:32:22.918Z,23.66
2022-09-06T02:34:52.302Z,23.65
2022-09-06T02:37:20.495Z,23.63
2022-09-06T02:39:48.212Z,23.60
2022-09-06T02:42:17.533Z,23.58
2022-09-06T02:44:45.263Z,23.57
2022-09-06T02:47:12.934Z,23.54
2022-09-06T02:49:41.975Z,23.54
2022-09-06T02:52:09.625Z,23.51
2022-09-06T02:54:37.309Z,23.49
2022-09-06T02:57:05.182Z,23.46
2022-09-06T02:59:32.871Z,23.46
2022-09-06T03:02:00.812Z,23.44
2022-09-06T03:04:28.907Z,23.41
2022-09-06T03:06:57.974Z,23.38
2022-09-06T03:09:25.802Z,23.36
2022-09-06T03:11:53.462Z,23.34
2022-09-06T03:14:21.130Z,23.32
2022-09-06T03:16:48.948Z,23.30
2022-09-06T03:19:17.933Z,23.29
2022-09-06T03:21:45.575Z,23.27
2022-09-06T03:24:14.594Z,23.26
2022-09-06T03:26:42.351Z,23.24
2022-09-06T03:29:10.081Z,23.22
2022-09-06T03:31:37.730Z,23.20
2022-09-06T03:34:10.261Z,23.20
2022-09-06T03:36:38.741Z,23.19
2022-09-06T03:39:07.092Z,23.16
2022-09-06T03:41:36.230Z,23.17
2022-09-06T03:44:04.154Z,23.15
2022-09-06T03:46:31.830Z,23.12
2022-09-06T03:48:59.941Z,23.10
2022-09-06T03:51:27.610Z,23.11
2022-09-06T03:53:55.583Z,23.09
2022-09-06T03:56:23.271Z,23.07
2022-09-06T03:58:52.387Z,23.04
2022-09-06T04:01:20.467Z,23.04
2022-09-06T04:03:48.430Z,23.03
2022-09-06T04:06:16.122Z,23.01
2022-09-06T04:08:43.811Z,22.99
2022-09-06T04:11:11.911Z,22.94
2022-09-06T04:13:39.635Z,22.95
2022-09-06T04:16:08.888Z,22.93
2022-09-06T04:18:36.699Z,22.91
2022-09-06T04:21:04.916Z,22.91
2022-09-06T04:23:36.403Z,22.89
2022-09-06T04:26:08.925Z,22.88
2022-09-06T04:28:36.763Z,22.86
2022-09-06T04:31:05.621Z,22.84
2022-09-06T04:33:37.194Z,22.81
2022-09-06T04:36:07.575Z,22.79
2022-09-06T04:38:38.289Z,22.78
2022-09-06T04:41:06.806Z,22.76
2022-09-06T04:43:34.452Z,22.74
2022-09-06T04:46:05.601Z,22.72
2022-09-06T04:48:34.670Z,22.69
2022-09-06T04:51:02.362Z,22.67
2022-09-06T04:53:30.125Z,22.65
2022-09-06T04:55:58.945Z,22.62
2022-09-06T04:58:26.814Z,22.62
2022-09-06T05:00:54.871Z,22.59
2022-09-06T05:03:22.640Z,22.57
2022-09-06T05:05:51.745Z,22.56
2022-09-06T05:08:19.971Z,22.55
2022-09-06T05:10:47.643Z,22.53
2022-09-06T05:13:15.325Z,22.51
2022-09-06T05:15:42.977Z,22.51
2022-09-06T05:18:14.170Z,22.48
2022-09-06T05:20:43.774Z,22.46
2022-09-06T05:23:12.818Z,22.44
2022-09-06T05:25:40.495Z,22.43
2022-09-06T05:28:08.158Z,22.42
2022-09-06T05:30:35.829Z,22.39
2022-09-06T05:33:03.507Z,22.37
2022-09-06T05:35:32.122Z,22.39
2022-09-06T05:37:59.791Z,22.37
2022-09-06T05:40:28.999Z,22.35
2022-09-06T05:42:56.690Z,22.35
2022-09-06T05:45:24.499Z,22.32
2022-09-06T05:47:52.247Z,22.30
2022-09-06T05:50:19.930Z,22.29
2022-09-06T05:52:47.589Z,22.28
2022-09-06T05:55:15.328Z,22.26
2022-09-06T05:57:44.388Z,22.26
2022-09-06T06:00:13.537Z,22.25
2022-09-06T06:02:41.428Z,22.25
2022-09-06T06:05:09.722Z,22.15
2022-09-06T06:07:37.441Z,22.23
2022-09-06T06:10:05.745Z,22.22
2022-09-06T06:12:33.421Z,22.23
2022-09-06T06:15:02.451Z,22.25
2022-09-06T06:17:30.142Z,22.26
2022-09-06T06:19:58.336Z,22.27
2022-09-06T06:22:26.039Z,22.31
2022-09-06T06:24:53.807Z,22.34
2022-09-06T06:27:21.518Z,22.38
2022-09-06T06:29:49.215Z,22.40
2022-09-06T06:32:18.225Z,22.44
2022-09-06T06:34:45.938Z,22.45
2022-09-06T06:37:13.578Z,22.47
2022-09-06T06:39:41.286Z,22.49
2022-09-06T06:42:09.163Z,22.51
2022-09-06T06:44:36.852Z,22.53
2022-09-06T06:47:04.653Z,22.54
2022-09-06T06:49:33.717Z,22.55
2022-09-06T06:52:01.478Z,22.56
2022-09-06T06:54:29.774Z,22.57
2022-09-06T06:56:57.456Z,22.58
2022-09-06T06:59:25.176Z,22.58
2022-09-06T07:01:53.017Z,22.59
2022-09-06T07:04:20.989Z,22.60
2022-09-06T07:12:27.961Z,22.65
2022-09-06T07:14:55.653Z,22.67
2022-09-06T07:17:23.333Z,22.69
2022-09-06T07:22:41.259Z,22.74
2022-09-06T07:25:12.155Z,22.78
2022-09-06T07:27:48.713Z,22.80
2022-09-06T07:30:17.385Z,22.80
2022-09-06T07:32:45.094Z,22.83
2022-09-06T07:35:13.862Z,22.84
2022-09-06T07:37:43.067Z,22.85
2022-09-06T07:40:11.838Z,22.86
2022-09-06T07:42:39.600Z,22.88
2022-09-06T07:45:08.265Z,22.89
2022-09-06T07:53:16.554Z,22.90
2022-09-06T07:55:47.323Z,22.91
2022-09-06T07:58:15.288Z,22.91
2022-09-06T08:00:43.286Z,22.91
2022-09-06T08:03:11.102Z,22.92
2022-09-06T08:11:15.615Z,22.84
2022-09-06T08:13:43.661Z,22.91
2022-09-06T08:16:16.186Z,22.92
2022-09-06T08:18:44.277Z,22.93
2022-09-06T08:21:13.407Z,22.89
2022-09-06T08:23:48.152Z,22.95
2022-09-06T08:26:15.967Z,22.94
2022-09-06T08:28:43.680Z,22.94
2022-09-06T08:31:12.640Z,22.94
2022-09-06T08:33:41.416Z,22.89
2022-09-06T08:36:10.398Z,22.92
2022-09-06T08:38:38.394Z,22.94
2022-09-06T08:41:13.285Z,22.93
2022-09-06T08:43:48.999Z,22.93
2022-09-06T08:46:19.168Z,22.93
2022-09-06T08:48:46.932Z,22.94
2022-09-06T08:51:43.189Z,22.94
2022-09-06T08:54:18.173Z,22.97
2022-09-06T08:56:59.818Z,22.99
2022-09-06T08:59:29.199Z,22.99
2022-09-06T09:02:05.836Z,23.02
2022-09-06T09:04:37.070Z,23.03
2022-09-06T09:07:24.836Z,23.01
2022-09-06T09:09:55.707Z,23.05
2022-09-06T09:12:26.107Z,23.05
2022-09-06T09:15:01.996Z,23.07
2022-09-06T09:17:32.963Z,23.05
2022-09-06T09:20:00.671Z,23.09
2022-09-06T09:22:28.966Z,23.09
2022-09-06T09:25:00.229Z,23.11
2022-09-06T09:27:30.849Z,23.11
2022-09-06T09:32:50.086Z,23.17
2022-09-06T09:35:24.176Z,23.16
2022-09-06T09:38:04.930Z,23.19
2022-09-06T09:40:39.934Z,23.21
2022-09-06T09:43:16.806Z,23.21
2022-09-06T09:45:45.428Z,23.23
2022-09-06T09:48:27.981Z,23.23
2022-09-06T09:50:56.637Z,23.24
2022-09-06T09:53:26.435Z,23.24
2022-09-06T09:55:58.753Z,23.25
2022-09-06T09:58:34.518Z,23.27
2022-09-06T10:01:16.934Z,23.29
2022-09-06T10:09:32.005Z,23.39
2022-09-06T10:12:01.558Z,23.43
2022-09-06T10:14:33.363Z,23.44
2022-09-06T10:17:01.606Z,23.47
2022-09-06T10:19:43.357Z,23.52
2022-09-06T10:22:27.913Z,23.56
2022-09-06T10:25:20.484Z,23.62
2022-09-06T10:28:11.483Z,23.66
2022-09-06T10:30:49.086Z,23.69
2022-09-06T10:33:26.838Z,23.75
2022-09-06T10:35:58.291Z,23.78
2022-09-06T10:38:38.467Z,23.80
2022-09-06T10:41:21.698Z,23.82
2022-09-06T10:43:57.693Z,23.86
2022-09-06T10:46:29.132Z,23.88
2022-09-06T10:48:57.302Z,23.91
2022-09-06T10:51:35.573Z,23.96
2022-09-06T10:54:09.590Z,23.98
2022-09-06T10:56:43.322Z,24.02
2022-09-06T11:02:13.435Z,24.04
2022-09-06T11:07:34.719Z,24.10
2022-09-06T11:10:11.111Z,24.11
2022-09-06T11:12:46.611Z,24.13
2022-09-06T11:15:15.963Z,24.13
2022-09-06T11:17:49.574Z,24.13
2022-09-06T11:20:24.961Z,24.14
2022-09-06T11:23:07.348Z,24.15
2022-09-06T11:26:16.328Z,24.15
2022-09-06T11:28:48.176Z,24.18
2022-09-06T11:34:20.897Z,24.22
2022-09-06T11:36:50.722Z,24.23
2022-09-06T11:43:03.084Z,24.30
2022-09-06T11:45:41.978Z,24.33
2022-09-06T11:48:35.066Z,24.38
2022-09-06T11:51:07.679Z,24.43
2022-09-06T11:53:57.737Z,24.46
2022-09-06T11:56:30.621Z,24.50
2022-09-06T11:59:04.951Z,24.54
2022-09-06T12:01:38.623Z,24.55
2022-09-06T12:04:10.284Z,24.55
2022-09-06T12:06:42.048Z,24.62
2022-09-06T12:09:32.720Z,24.67
2022-09-06T12:12:02.300Z,24.70
2022-09-06T12:14:40.943Z,24.70
2022-09-06T12:17:26.431Z,24.69
2022-09-06T12:20:06.214Z,24.69
2022-09-06T12:22:55.473Z,24.72
2022-09-06T12:25:54.762Z,24.76
2022-09-06T12:28:28.379Z,24.78
2022-09-06T12:30:56.190Z,24.80
2022-09-06T12:33:30.597Z,24.82
2022-09-06T12:36:14.801Z,24.86
2022-09-06T12:38:55.673Z,24.91
2022-09-06T12:41:23.659Z,24.92
2022-09-06T12:43:51.503Z,25.02
2022-09-06T12:46:19.659Z,25.06
2022-09-06T12:49:03.935Z,25.09
2022-09-06T12:51:32.287Z,25.12
2022-09-06T12:54:04.070Z,25.11
2022-09-06T12:56:34.086Z,25.12
2022-09-06T12:59:14.290Z,25.11
2022-09-06T13:01:46.085Z,25.12
2022-09-06T13:04:21.396Z,25.14
2022-09-06T13:06:49.727Z,25.16
2022-09-06T13:09:21.684Z,25.19
2022-09-06T13:11:52.575Z,25.22
2022-09-06T13:14:22.898Z,25.24
2022-09-06T13:16:53.364Z,25.27
2022-09-06T13:19:33.606Z,25.32
2022-09-06T13:22:03.748Z,25.36
2022-09-06T13:24:47.198Z,25.40
2022-09-06T13:27:26.487Z,25.40
2022-09-06T13:29:58.847Z,25.43
2022-09-06T13:32:27.831Z,25.44
2022-09-06T13:34:57.857Z,25.44
2022-09-06T13:37:27.226Z,25.46
2022-09-06T13:39:57.495Z,25.47
2022-09-06T13:42:28.209Z,25.49
2022-09-06T13:45:01.292Z,25.50
2022-09-06T13:47:30.394Z,25.55
2022-09-06T13:49:58.054Z,25.59
2022-09-06T13:52:25.940Z,25.61
2022-09-06T13:54:53.635Z,25.64
2022-09-06T13:57:24.645Z,25.70
2022-09-06T13:59:52.540Z,25.72
2022-09-06T14:02:20.966Z,25.73
2022-09-06T14:04:48.689Z,25.73
2022-09-06T14:07:16.361Z,25.75
2022-09-06T14:09:44.069Z,25.78
2022-09-06T14:12:11.746Z,25.81
2022-09-06T14:14:40.834Z,25.85
2022-09-06T14:17:08.510Z,25.89
2022-09-06T14:19:36.173Z,25.91
2022-09-06T14:22:05.612Z,25.91
2022-09-06T14:24:33.890Z,25.93
2022-09-06T14:27:01.939Z,25.96
2022-09-06T14:29:29.594Z,26.00
2022-09-06T14:31:58.621Z,26.00
2022-09-06T14:34:26.739Z,26.00
2022-09-06T14:36:54.466Z,26.00
2022-09-06T14:39:22.301Z,26.01
2022-09-06T14:41:50.513Z,26.00
2022-09-06T14:44:18.294Z,26.00
2022-09-06T14:46:47.719Z,26.01
2022-09-06T14:49:17.007Z,26.00
2022-09-06T14:51:45.903Z,26.04
2022-09-06T14:54:15.845Z,26.03
2022-09-06T14:56:43.805Z,26.05
2022-09-06T14:59:12.515Z,26.06
2022-09-06T15:01:41.247Z,26.06
2022-09-06T15:04:11.046Z,26.06
2022-09-06T15:06:44.886Z,26.07
2022-09-06T15:09:12.667Z,26.08
2022-09-06T15:11:42.382Z,26.11
2022-09-06T15:14:14.813Z,26.10
2022-09-06T15:16:42.726Z,26.12
2022-09-06T15:19:10.439Z,26.13
2022-09-06T15:21:38.671Z,26.15
2022-09-06T15:24:11.718Z,26.15
2022-09-06T15:26:39.866Z,26.16
2022-09-06T15:29:07.568Z,26.19
2022-09-06T15:31:36.077Z,26.23
2022-09-06T15:34:03.791Z,26.25
2022-09-06T15:36:31.857Z,26.27
2022-09-06T15:39:01.922Z,26.26
2022-09-06T15:41:32.662Z,26.28
2022-09-06T15:44:02.022Z,26.31
2022-09-06T15:46:44.785Z,26.30
2022-09-06T15:49:14.680Z,26.31
2022-09-06T15:51:42.957Z,26.32
2022-09-06T15:54:11.837Z,26.34
2022-09-06T15:56:41.374Z,26.34
2022-09-06T15:59:09.210Z,26.33
2022-09-06T16:01:37.077Z,26.31
2022-09-06T16:04:06.609Z,26.31
2022-09-06T16:06:37.629Z,26.32
2022-09-06T16:09:07.770Z,26.31
2022-09-06T16:11:36.846Z,26.33
2022-09-06T16:14:07.830Z,26.34
2022-09-06T16:16:35.970Z,26.34
2022-09-06T16:19:04.422Z,26.31
2022-09-06T16:21:33.769Z,26.33
2022-09-06T16:24:03.178Z,26.33
2022-09-06T16:26:34.410Z,26.32
2022-09-06T16:29:03.169Z,26.31
2022-09-06T16:31:39.187Z,26.31
2022-09-06T16:34:07.972Z,26.31
2022-09-06T16:36:35.887Z,26.28
2022-09-06T16:39:03.649Z,26.26
2022-09-06T16:41:37.309Z,26.26
2022-09-06T16:44:05.040Z,26.26
2022-09-06T16:46:34.790Z,26.25
2022-09-06T16:49:03.047Z,26.26
2022-09-06T16:51:31.859Z,26.26
2022-09-06T16:54:00.481Z,26.26
2022-09-06T16:56:31.766Z,26.24
2022-09-06T16:59:01.274Z,26.25
2022-09-06T17:01:31.270Z,26.24
2022-09-06T17:04:01.734Z,26.23
2022-09-06T17:06:30.083Z,26.23
2022-09-06T17:08:59.267Z,26.21
2022-09-06T17:11:28.073Z,26.22
2022-09-06T17:13:56.917Z,26.21
2022-09-06T17:16:43.232Z,26.20
2022-09-06T17:19:13.904Z,26.21
2022-09-06T17:21:41.816Z,26.19
2022-09-06T17:24:09.941Z,26.20
2022-09-06T17:26:39.673Z,26.19
2022-09-06T17:29:08.445Z,26.18
2022-09-06T17:31:36.916Z,26.17
2022-09-06T17:34:05.157Z,26.16
2022-09-06T17:36:34.991Z,26.16
2022-09-06T17:39:04.298Z,26.15
2022-09-06T17:41:36.587Z,26.16
2022-09-06T17:44:05.637Z,26.11
2022-09-06T17:46:33.474Z,26.14
2022-09-06T17:49:01.342Z,26.13
2022-09-06T17:51:29.261Z,26.14
2022-09-06T17:53:58.731Z,26.12
2022-09-06T17:56:27.265Z,26.10
2022-09-06T17:58:56.593Z,26.10
2022-09-06T18:01:25.553Z,26.08
2022-09-06T18:03:53.613Z,26.06
2022-09-06T18:06:23.464Z,26.05
2022-09-06T18:08:52.577Z,26.05
2022-09-06T18:11:24.311Z,26.04
2022-09-06T18:13:56.852Z,26.04
2022-09-06T18:16:25.075Z,26.02
2022-09-06T18:18:54.500Z,25.98
2022-09-06T18:21:23.008Z,26.01
2022-09-06T18:23:51.317Z,25.99
2022-09-06T18:26:19.174Z,25.98
2022-09-06T18:28:48.373Z,25.96
2022-09-06T18:31:18.333Z,25.95
2022-09-06T18:33:46.484Z,25.93
2022-09-06T18:36:15.739Z,25.91
2022-09-06T18:38:44.138Z,25.90
2022-09-06T18:41:33.214Z,25.88
2022-09-06T18:44:03.331Z,25.85
2022-09-06T18:46:31.920Z,25.84
2022-09-06T18:48:59.990Z,25.83
2022-09-06T18:51:28.290Z,25.81
2022-09-06T18:53:59.503Z,25.76
2022-09-06T18:56:28.220Z,25.77
2022-09-06T18:58:58.221Z,25.76
2022-09-06T19:01:29.130Z,25.74
2022-09-06T19:03:57.789Z,25.72
2022-09-06T19:06:26.178Z,25.70
2022-09-06T19:08:54.139Z,25.70
2022-09-06T19:11:23.009Z,25.68
2022-09-06T19:13:52.532Z,25.65
2022-09-06T19:16:21.178Z,25.66
2022-09-06T19:18:50.909Z,25.65
2022-09-06T19:21:22.083Z,25.64
2022-09-06T19:23:56.785Z,25.62
2022-09-06T19:26:26.653Z,25.60
2022-09-06T19:28:56.179Z,25.58
2022-09-06T19:31:25.423Z,25.58
2022-09-06T19:33:55.588Z,25.52
2022-09-06T19:36:24.227Z,25.55
2022-09-06T19:39:03.629Z,25.54
2022-09-06T19:41:33.607Z,25.51
2022-09-06T19:44:01.721Z,25.52
2022-09-06T19:46:29.545Z,25.52
2022-09-06T19:48:58.843Z,25.50
2022-09-06T19:51:26.668Z,25.48
2022-09-06T19:53:57.538Z,25.49
2022-09-06T19:56:26.676Z,25.49
2022-09-06T19:58:56.441Z,25.48
2022-09-06T20:01:25.808Z,25.47
2022-09-06T20:03:53.722Z,25.47
2022-09-06T20:06:23.093Z,25.46
2022-09-06T20:08:52.239Z,25.45
2022-09-06T20:11:21.586Z,25.42
2022-09-06T20:13:49.623Z,25.43
2022-09-06T20:16:20.561Z,25.43
2022-09-06T20:18:48.999Z,25.41
2022-09-06T20:21:18.505Z,25.40
2022-09-06T20:23:51.053Z,25.40
2022-09-06T20:26:19.546Z,25.38
2022-09-06T20:28:47.975Z,25.38
2022-09-06T20:31:17.112Z,25.37
2022-09-06T20:33:49.372Z,25.35
2022-09-06T20:36:18.766Z,25.34
2022-09-06T20:38:48.653Z,25.34
2022-09-06T20:41:19.576Z,25.33
2022-09-06T20:43:51.515Z,25.33
2022-09-06T20:46:21.178Z,25.30
2022-09-06T20:48:49.177Z,25.30
2022-09-06T20:51:19.454Z,25.29
2022-09-06T20:53:49.012Z,25.23
2022-09-06T20:56:20.251Z,25.26
2022-09-06T20:58:52.609Z,25.25
2022-09-06T21:01:22.806Z,25.23
2022-09-06T21:03:52.425Z,25.22
2022-09-06T21:06:21.567Z,25.20
2022-09-06T21:08:50.327Z,25.18
2022-09-06T21:11:20.287Z,25.14
2022-09-06T21:13:50.292Z,25.16
2022-09-06T21:16:23.311Z,25.15
2022-09-06T21:18:52.948Z,25.12
2022-09-06T21:21:22.189Z,25.12
2022-09-06T21:23:50.432Z,25.12
2022-09-06T21:26:20.100Z,25.10
2022-09-06T21:28:49.096Z,25.09
2022-09-06T21:31:18.297Z,25.08
2022-09-06T21:33:48.007Z,25.04
2022-09-06T21:36:17.426Z,25.06
2022-09-06T21:38:47.357Z,25.05
2022-09-06T21:41:17.076Z,25.03
2022-09-06T21:43:46.875Z,25.02
2022-09-06T21:46:17.951Z,25.01
2022-09-06T21:48:47.272Z,24.99
2022-09-06T21:51:16.680Z,24.97
2022-09-06T21:53:45.918Z,24.97
2022-09-06T21:56:14.459Z,24.96
2022-09-06T21:58:42.299Z,24.96
2022-09-06T22:01:11.416Z,24.94
2022-09-06T22:03:40.233Z,24.94
2022-09-06T22:06:12.765Z,24.94
2022-09-06T22:08:43.107Z,24.92
2022-09-06T22:11:12.643Z,24.91
2022-09-06T22:13:40.722Z,24.91
2022-09-06T22:16:09.099Z,24.88
2022-09-06T22:18:38.919Z,24.88
2022-09-06T22:21:09.939Z,24.86
2022-09-06T22:23:38.771Z,24.85
2022-09-06T22:26:08.862Z,24.83
2022-09-06T22:28:37.738Z,24.80
2022-09-06T22:31:05.931Z,24.81
2022-09-06T22:33:33.905Z,24.80
2022-09-06T22:36:03.521Z,24.76
2022-09-06T22:38:31.703Z,24.70
2022-09-06T22:40:59.526Z,24.72
2022-09-06T22:43:27.238Z,24.69
2022-09-06T22:45:54.947Z,24.66
2022-09-06T22:48:22.911Z,24.62
2022-09-06T22:50:50.683Z,24.60
2022-09-06T22:53:20.866Z,24.57
2022-09-06T22:55:49.013Z,24.56
2022-09-06T22:58:16.861Z,24.55
2022-09-06T23:00:44.587Z,24.55
2022-09-06T23:03:12.369Z,24.54
2022-09-06T23:05:40.168Z,24.54
2022-09-06T23:08:08.074Z,24.52
2022-09-06T23:10:41.675Z,24.47
2022-09-06T23:13:10.304Z,24.46
2022-09-06T23:15:40.715Z,24.43
2022-09-06T23:18:08.626Z,24.38
2022-09-06T23:20:37.148Z,24.35
2022-09-06T23:23:04.934Z,24.32
2022-09-06T23:25:32.807Z,24.24
2022-09-06T23:28:01.957Z,24.22
2022-09-06T23:30:29.608Z,24.18
2022-09-06T23:32:57.313Z,24.16
2022-09-06T23:35:25.253Z,24.14
2022-09-06T23:37:53.834Z,24.10
2022-09-06T23:40:21.675Z,24.12
2022-09-06T23:42:49.499Z,24.10
2022-09-06T23:45:18.597Z,24.09
2022-09-06T23:47:46.279Z,24.08
2022-09-06T23:50:14.178Z,24.06
2022-09-06T23:52:41.914Z,24.04
2022-09-06T23:55:10.293Z,24.01
2022-09-06T23:57:38.318Z,24.00
